Time;durP1;ratioP1;P1;durP2;ratioP2;P2;SDS_P1;SDS_P2;PMS_P1;PMS_P2;Temp;Humidity;BMP_temperature;BMP_pressure;BME280_temperature;BME280_humidity;BME280_pressure;Samples;Min_cycle;Max_cycle;Signal;HPM_P1;HPM_P2
2024/03/13 00:02:21;;;;;;;22.93;13.00;;;10.60;99.90;;;;;;6153814;23;20457;-60
2024/03/13 00:04:49;;;;;;;19.87;13.70;;;10.70;99.90;;;;;;6154724;23;20960;-62
2024/03/13 00:07:16;;;;;;;25.37;12.97;;;10.70;99.90;;;;;;6153885;23;20453;-63
2024/03/13 00:09:45;;;;;;;25.53;13.80;;;10.70;99.90;;;;;;6154162;23;20406;-63
2024/03/13 00:12:14;;;;;;;26.37;12.47;;;10.80;99.90;;;;;;6154048;23;20426;-63
2024/03/13 00:14:40;;;;;;;19.27;11.27;;;10.80;99.90;;;;;;6154136;23;20904;-59
2024/03/13 00:17:10;;;;;;;19.77;11.97;;;10.90;99.90;;;;;;6154228;23;20821;-60
2024/03/13 00:19:37;;;;;;;21.13;12.43;;;10.90;99.90;;;;;;6153824;23;20442;-62
2024/03/13 00:22:05;;;;;;;20.87;13.67;;;10.90;99.90;;;;;;6153286;23;20742;-62
2024/03/13 00:24:32;;;;;;;28.60;14.70;;;10.90;99.90;;;;;;6154295;23;20889;-64
2024/03/13 00:26:59;;;;;;;24.50;14.87;;;11.00;99.90;;;;;;6153841;23;20481;-61
2024/03/13 00:29:26;;;;;;;23.10;13.00;;;10.90;99.90;;;;;;6154284;23;20777;-63
2024/03/13 00:31:53;;;;;;;23.20;12.43;;;10.90;99.90;;;;;;6153732;23;20458;-60
2024/03/13 00:34:20;;;;;;;23.83;13.83;;;10.90;99.90;;;;;;6153733;23;20798;-63
2024/03/13 00:36:47;;;;;;;21.27;12.13;;;10.90;99.90;;;;;;6153472;23;20442;-62
2024/03/13 00:39:15;;;;;;;24.23;12.70;;;11.00;99.90;;;;;;6153774;23;20409;-61
2024/03/13 00:41:43;;;;;;;21.80;12.67;;;10.90;99.90;;;;;;6153618;23;20434;-61
2024/03/13 00:44:10;;;;;;;21.53;12.23;;;10.90;99.90;;;;;;6154939;23;20406;-61
2024/03/13 00:46:37;;;;;;;30.83;13.57;;;10.90;99.90;;;;;;6155879;23;20775;-63
2024/03/13 00:49:07;;;;;;;26.53;14.37;;;10.90;99.90;;;;;;6156197;23;20783;-61
2024/03/13 00:51:35;;;;;;;24.30;11.77;;;10.80;99.90;;;;;;6155768;23;20896;-62
2024/03/13 00:54:04;;;;;;;24.27;12.20;;;10.80;99.90;;;;;;6155567;23;20441;-63
2024/03/13 00:56:33;;;;;;;22.80;12.37;;;10.80;99.90;;;;;;6155950;23;20767;-62
2024/03/13 00:59:00;;;;;;;19.70;11.67;;;10.80;99.90;;;;;;6155776;23;20406;-62
2024/03/13 01:01:27;;;;;;;21.80;11.60;;;10.90;99.90;;;;;;6155404;23;20472;-63
2024/03/13 01:03:58;;;;;;;19.47;11.97;;;10.90;99.90;;;;;;6155516;23;20771;-60
2024/03/13 01:06:28;;;;;;;21.97;11.20;;;10.80;99.90;;;;;;6156020;23;20393;-63
2024/03/13 01:08:56;;;;;;;23.87;12.77;;;10.80;99.90;;;;;;6155735;23;20482;-63
2024/03/13 01:11:23;;;;;;;21.60;11.33;;;10.70;99.90;;;;;;6155688;23;20417;-62
2024/03/13 01:13:51;;;;;;;20.13;10.97;;;10.60;99.90;;;;;;6155364;23;20434;-61
2024/03/13 01:16:18;;;;;;;20.73;11.33;;;10.60;99.90;;;;;;6155471;23;20533;-63
2024/03/13 01:18:45;;;;;;;18.07;10.93;;;10.60;99.90;;;;;;6155628;23;20460;-62
2024/03/13 01:21:12;;;;;;;18.00;11.17;;;10.60;99.90;;;;;;6155635;23;20476;-63
2024/03/13 01:23:40;;;;;;;23.10;11.50;;;10.60;99.90;;;;;;6155549;23;20445;-62
2024/03/13 01:26:08;;;;;;;19.27;10.30;;;10.60;99.90;;;;;;6155198;23;20501;-61
2024/03/13 01:28:36;;;;;;;21.17;12.27;;;10.60;99.90;;;;;;6155746;23;20413;-62
2024/03/13 01:31:07;;;;;;;17.60;10.50;;;10.60;99.90;;;;;;6155647;23;20452;-62
2024/03/13 01:33:34;;;;;;;17.30;10.20;;;10.60;99.90;;;;;;6155241;23;20438;-61
2024/03/13 01:36:01;;;;;;;20.10;10.60;;;10.60;99.90;;;;;;6155235;23;20402;-62
2024/03/13 01:38:26;;;;;;;22.20;12.63;;;10.70;99.90;;;;;;6155576;23;20422;-63
2024/03/13 01:55:06;;;;;;;23.97;13.07;;;10.70;99.90;;;;;;6155142;23;20374;-61
2024/03/13 01:57:45;;;;;;;17.30;11.20;;;10.70;99.90;;;;;;6155284;23;20430;-62
2024/03/13 02:02:58;;;;;;;22.53;11.20;;;10.60;99.90;;;;;;6155222;23;20498;-61
2024/03/13 02:05:25;;;;;;;18.17;9.97;;;10.70;99.90;;;;;;6155229;23;20434;-63
2024/03/13 02:07:52;;;;;;;20.60;11.83;;;10.70;99.90;;;;;;6155544;23;21052;-62
2024/03/13 02:10:19;;;;;;;17.70;10.70;;;10.60;99.90;;;;;;6154953;23;20441;-62
2024/03/13 02:13:02;;;;;;;20.63;12.03;;;10.70;99.90;;;;;;6154945;23;20453;-63
2024/03/13 02:15:29;;;;;;;22.37;11.27;;;10.60;99.90;;;;;;6155210;23;20411;-61
2024/03/13 02:17:58;;;;;;;21.10;12.20;;;10.60;99.90;;;;;;6155280;23;21038;-62
2024/03/13 02:20:33;;;;;;;22.23;12.20;;;10.60;99.90;;;;;;6154904;23;20490;-62
2024/03/13 02:23:04;;;;;;;19.97;11.30;;;10.60;99.90;;;;;;6154509;23;20422;-63
2024/03/13 02:25:31;;;;;;;22.20;12.40;;;10.60;99.90;;;;;;6154844;23;20884;-62
2024/03/13 02:27:59;;;;;;;20.77;11.43;;;10.60;99.90;;;;;;6105330;23;20437;-63
2024/03/13 02:30:27;;;;;;;19.77;11.10;;;10.60;99.90;;;;;;6105123;23;20912;-62
2024/03/13 02:32:54;;;;;;;24.07;12.27;;;10.60;99.90;;;;;;6104503;23;20429;-62
2024/03/13 02:35:21;;;;;;;20.07;11.33;;;10.60;99.90;;;;;;6104590;23;21075;-61
2024/03/13 02:37:48;;;;;;;18.87;12.07;;;10.60;99.90;;;;;;6104402;23;20453;-62
2024/03/13 02:40:16;;;;;;;23.40;11.63;;;10.50;99.90;;;;;;6104956;23;20406;-63
2024/03/13 02:42:44;;;;;;;21.73;10.10;;;10.50;99.90;;;;;;6105096;23;20440;-61
2024/03/13 02:45:13;;;;;;;27.20;13.70;;;10.50;99.90;;;;;;6105473;23;20505;-61
2024/03/13 02:47:41;;;;;;;22.00;12.90;;;10.50;99.90;;;;;;6106080;23;20485;-60
2024/03/13 02:50:11;;;;;;;19.77;12.40;;;10.50;99.90;;;;;;6105810;23;20402;-63
2024/03/13 02:52:38;;;;;;;23.57;12.70;;;10.50;99.90;;;;;;6105666;23;20517;-64
2024/03/13 02:55:05;;;;;;;22.67;13.20;;;10.40;99.90;;;;;;6104763;23;20466;-62
2024/03/13 02:57:32;;;;;;;29.50;13.87;;;10.40;99.90;;;;;;6104688;23;20473;-61
2024/03/13 02:59:59;;;;;;;41.17;22.30;;;10.40;99.90;;;;;;6104292;23;20909;-63
2024/03/13 03:02:27;;;;;;;33.13;18.17;;;10.40;99.90;;;;;;6103634;23;20510;-63
2024/03/13 03:04:56;;;;;;;28.97;16.03;;;10.40;99.90;;;;;;6104805;23;20909;-61
2024/03/13 03:07:23;;;;;;;22.60;13.20;;;10.50;99.90;;;;;;6104691;23;20402;-61
2024/03/13 03:09:50;;;;;;;25.43;15.50;;;10.50;99.90;;;;;;6104342;23;20948;-63
2024/03/13 03:12:21;;;;;;;25.63;15.70;;;10.40;99.90;;;;;;6115320;23;20455;-57
2024/03/13 03:14:48;;;;;;;30.70;14.03;;;10.40;99.90;;;;;;6106361;23;20409;-57
2024/03/13 03:17:16;;;;;;;22.10;12.73;;;10.40;99.90;;;;;;6105362;23;20823;-59
2024/03/13 03:19:43;;;;;;;22.07;12.60;;;10.40;99.90;;;;;;6106192;23;20403;-59
2024/03/13 03:22:10;;;;;;;27.30;13.57;;;10.40;99.90;;;;;;6105938;23;20427;-59
2024/03/13 03:24:37;;;;;;;29.33;14.80;;;10.40;99.90;;;;;;6106075;23;20431;-60
2024/03/13 03:27:05;;;;;;;26.90;14.00;;;10.30;99.90;;;;;;6106875;23;20403;-59
2024/03/13 03:29:32;;;;;;;26.43;13.70;;;10.30;99.90;;;;;;6106581;23;20407;-57
2024/03/13 03:31:59;;;;;;;28.10;14.23;;;10.30;99.90;;;;;;6105511;23;20438;-59
2024/03/13 03:34:26;;;;;;;26.77;13.87;;;10.30;99.90;;;;;;6107000;23;20514;-60
2024/03/13 03:36:55;;;;;;;26.60;14.70;;;10.30;99.90;;;;;;6108574;23;21027;-58
2024/03/13 03:39:25;;;;;;;31.10;13.37;;;10.20;99.90;;;;;;6108525;23;20408;-56
2024/03/13 03:41:52;;;;;;;25.50;15.20;;;10.20;99.90;;;;;;6105640;23;20437;-60
2024/03/13 03:44:19;;;;;;;24.10;14.20;;;10.10;99.90;;;;;;6129775;23;20490;-59
2024/03/13 03:46:46;;;;;;;27.30;13.97;;;10.10;99.90;;;;;;6105387;23;20786;-59
2024/03/13 03:49:13;;;;;;;26.40;13.87;;;10.10;99.90;;;;;;6105762;23;20407;-59
2024/03/13 03:51:40;;;;;;;31.47;14.93;;;10.10;99.90;;;;;;6105502;23;20458;-58
2024/03/13 03:54:07;;;;;;;29.60;14.43;;;10.00;99.90;;;;;;6104310;23;20444;-58
2024/03/13 03:56:38;;;;;;;27.47;14.70;;;10.00;99.90;;;;;;6104606;23;20398;-59
2024/03/13 03:59:06;;;;;;;24.50;13.67;;;10.00;99.90;;;;;;6111600;23;20376;-58
2024/03/13 04:01:33;;;;;;;27.13;14.70;;;9.90;99.90;;;;;;6113266;23;20406;-59
2024/03/13 04:04:00;;;;;;;28.70;14.13;;;9.90;99.90;;;;;;6113746;23;20407;-59
2024/03/13 04:06:27;;;;;;;24.63;14.00;;;9.90;99.90;;;;;;6111858;23;20411;-58
2024/03/13 04:08:54;;;;;;;30.20;15.53;;;9.90;99.90;;;;;;6112634;23;20395;-59
2024/03/13 04:11:21;;;;;;;26.30;15.00;;;9.80;99.90;;;;;;6110920;23;20411;-57
2024/03/13 04:13:48;;;;;;;25.83;14.73;;;9.80;99.90;;;;;;6108350;23;20431;-60
2024/03/13 04:16:16;;;;;;;25.13;12.37;;;9.80;99.90;;;;;;6108089;23;20411;-58
2024/03/13 04:18:44;;;;;;;30.37;15.00;;;9.70;99.90;;;;;;6109063;23;20438;-59
2024/03/13 04:21:11;;;;;;;26.13;13.60;;;9.70;99.90;;;;;;6108208;23;20406;-59
2024/03/13 04:23:39;;;;;;;30.30;16.17;;;9.70;99.90;;;;;;6109033;23;20434;-60
2024/03/13 04:26:06;;;;;;;25.80;15.37;;;9.60;99.90;;;;;;6108407;23;20431;-59
2024/03/13 04:28:33;;;;;;;28.07;14.00;;;9.60;99.90;;;;;;6109594;23;20406;-58
2024/03/13 04:31:01;;;;;;;30.20;15.00;;;9.60;99.90;;;;;;6108817;23;20417;-58
2024/03/13 04:33:29;;;;;;;26.83;13.60;;;9.50;99.90;;;;;;6109219;23;20506;-58
2024/03/13 04:35:57;;;;;;;27.17;14.87;;;9.50;99.90;;;;;;6108710;23;20399;-57
2024/03/13 04:38:25;;;;;;;27.47;16.10;;;9.50;99.90;;;;;;6108389;23;20445;-59
2024/03/13 04:40:52;;;;;;;25.17;14.97;;;9.40;99.90;;;;;;6107559;23;20398;-59
2024/03/13 04:43:19;;;;;;;30.73;15.60;;;9.30;99.90;;;;;;6108893;23;20415;-59
2024/03/13 04:45:46;;;;;;;28.57;15.03;;;9.30;99.90;;;;;;6109090;23;20425;-59
2024/03/13 04:48:14;;;;;;;30.10;15.47;;;9.20;99.90;;;;;;6109042;23;20729;-59
2024/03/13 04:50:41;;;;;;;25.80;14.37;;;9.20;99.90;;;;;;6112703;23;20410;-60
2024/03/13 04:53:08;;;;;;;29.13;13.90;;;9.20;99.90;;;;;;6112219;23;20426;-57
2024/03/13 04:55:35;;;;;;;25.07;13.07;;;9.20;99.90;;;;;;6115219;23;20399;-59
2024/03/13 04:58:02;;;;;;;24.53;14.27;;;9.10;99.90;;;;;;6114076;23;20466;-58
2024/03/13 05:00:29;;;;;;;26.53;14.47;;;9.10;99.90;;;;;;6112701;23;20434;-58
2024/03/13 05:02:56;;;;;;;27.13;15.07;;;9.10;99.90;;;;;;6110761;23;20789;-57
2024/03/13 05:05:23;;;;;;;33.30;13.93;;;9.10;99.90;;;;;;6109552;23;20398;-56
2024/03/13 05:07:50;;;;;;;27.90;14.83;;;9.00;99.90;;;;;;6107491;23;20398;-56
2024/03/13 05:10:17;;;;;;;26.97;12.97;;;9.10;99.90;;;;;;6109472;23;20421;-59
2024/03/13 05:12:44;;;;;;;31.13;14.37;;;9.10;99.90;;;;;;6106973;23;20498;-57
2024/03/13 05:15:11;;;;;;;29.70;14.47;;;9.00;99.90;;;;;;6107152;23;20409;-57
2024/03/13 05:17:39;;;;;;;30.37;15.30;;;9.00;99.90;;;;;;6107840;23;20446;-59
2024/03/13 05:20:11;;;;;;;35.37;15.83;;;8.90;99.90;;;;;;6108684;23;20490;-58
2024/03/13 05:22:38;;;;;;;33.03;16.60;;;8.90;99.90;;;;;;6108996;23;20431;-56
2024/03/13 05:25:09;;;;;;;25.90;16.00;;;8.90;99.90;;;;;;6110195;23;20423;-59
2024/03/13 05:27:40;;;;;;;30.80;14.33;;;8.90;99.90;;;;;;6109195;23;20893;-60
2024/03/13 05:30:09;;;;;;;28.30;15.70;;;9.00;99.90;;;;;;6107960;23;20388;-58
2024/03/13 05:32:37;;;;;;;27.17;14.87;;;9.00;99.90;;;;;;6109039;23;20424;-59
2024/03/13 05:35:08;;;;;;;22.60;13.57;;;9.00;99.90;;;;;;6108069;23;20419;-58
2024/03/13 05:37:36;;;;;;;31.60;15.07;;;9.00;99.90;;;;;;6110322;23;20497;-56
2024/03/13 05:40:11;;;;;;;42.30;17.50;;;8.90;99.90;;;;;;6110121;23;20477;-60
2024/03/13 05:42:39;;;;;;;26.90;15.03;;;8.90;99.90;;;;;;6109759;23;20427;-59
2024/03/13 05:45:07;;;;;;;34.50;15.53;;;8.90;99.90;;;;;;6107593;23;20422;-56
2024/03/13 05:47:34;;;;;;;28.30;15.17;;;8.90;99.90;;;;;;6112805;23;20399;-59
2024/03/13 05:50:01;;;;;;;33.23;17.00;;;8.90;99.90;;;;;;6114184;23;20430;-56
2024/03/13 05:52:28;;;;;;;31.43;15.17;;;8.90;99.90;;;;;;6108080;23;20947;-59
2024/03/13 05:54:55;;;;;;;38.47;17.60;;;8.90;99.90;;;;;;6107976;23;20418;-59
2024/03/13 05:57:23;;;;;;;32.20;16.43;;;8.90;99.90;;;;;;6108410;23;20414;-57
2024/03/13 05:59:50;;;;;;;27.90;14.67;;;8.80;99.90;;;;;;6106121;23;20407;-60
2024/03/13 06:02:17;;;;;;;31.83;16.20;;;8.80;99.90;;;;;;6105353;23;20458;-56
2024/03/13 06:04:45;;;;;;;33.40;15.30;;;8.90;99.90;;;;;;6106055;23;20434;-60
2024/03/13 06:07:12;;;;;;;37.57;15.70;;;8.90;99.90;;;;;;6108100;23;20480;-59
2024/03/13 06:09:39;;;;;;;29.07;14.80;;;8.90;99.90;;;;;;6107325;23;20410;-61
2024/03/13 06:12:07;;;;;;;26.30;15.07;;;8.90;99.90;;;;;;6107220;23;20435;-59
2024/03/13 06:14:34;;;;;;;31.43;15.70;;;8.90;99.90;;;;;;6106455;23;20415;-59
2024/03/13 06:17:02;;;;;;;31.07;15.17;;;8.90;99.90;;;;;;6106537;23;20403;-60
2024/03/13 06:19:29;;;;;;;30.00;15.80;;;8.90;99.90;;;;;;6107045;23;20471;-59
2024/03/13 06:21:56;;;;;;;29.03;16.00;;;8.90;99.90;;;;;;6106741;23;20790;-59
2024/03/13 06:24:30;;;;;;;26.20;13.90;;;8.90;99.90;;;;;;6106592;23;20406;-57
2024/03/13 06:27:00;;;;;;;29.53;15.77;;;8.90;99.90;;;;;;6109766;23;20380;-61
2024/03/13 06:32:11;;;;;;;31.80;14.13;;;9.00;99.90;;;;;;6112101;23;20418;-61
2024/03/13 06:34:39;;;;;;;28.97;14.50;;;9.00;99.90;;;;;;6107692;23;20430;-58
2024/03/13 06:37:06;;;;;;;28.80;14.97;;;9.00;99.90;;;;;;6108634;23;20733;-60
2024/03/13 06:39:33;;;;;;;31.73;16.63;;;9.00;99.90;;;;;;6107174;23;20835;-59
2024/03/13 06:42:00;;;;;;;33.60;16.53;;;9.10;99.90;;;;;;6105930;23;20422;-61
2024/03/13 06:44:27;;;;;;;32.60;17.50;;;9.10;99.90;;;;;;6105687;23;20413;-61
2024/03/13 06:46:54;;;;;;;30.60;18.00;;;9.10;99.90;;;;;;6104225;23;20399;-60
2024/03/13 06:49:21;;;;;;;28.77;14.20;;;9.10;99.90;;;;;;6104341;23;20410;-60
2024/03/13 06:51:48;;;;;;;33.83;18.07;;;9.20;99.90;;;;;;6104323;23;20427;-61
2024/03/13 06:54:15;;;;;;;35.43;16.80;;;9.20;99.90;;;;;;6104709;23;20407;-60
2024/03/13 06:56:43;;;;;;;39.30;16.30;;;9.20;99.90;;;;;;6103666;23;20431;-61
2024/03/13 06:59:12;;;;;;;32.60;15.33;;;9.20;99.90;;;;;;6106000;23;20521;-57
2024/03/13 07:01:39;;;;;;;27.70;15.97;;;9.30;99.90;;;;;;6105567;23;20493;-58
2024/03/13 07:04:06;;;;;;;31.43;17.50;;;9.40;99.90;;;;;;6106882;23;20430;-55
2024/03/13 07:06:34;;;;;;;35.23;16.00;;;9.40;99.90;;;;;;6107233;23;20435;-61
2024/03/13 07:09:01;;;;;;;34.73;17.23;;;9.40;99.90;;;;;;6108527;23;20411;-52
2024/03/13 07:11:28;;;;;;;33.83;18.03;;;9.40;99.90;;;;;;6106094;23;20411;-60
2024/03/13 07:13:55;;;;;;;35.70;15.47;;;9.40;99.90;;;;;;6105588;23;20756;-58
2024/03/13 07:16:22;;;;;;;33.27;16.17;;;9.40;99.90;;;;;;6102700;23;20494;-62
2024/03/13 07:18:49;;;;;;;33.10;17.20;;;9.50;99.90;;;;;;6105775;23;20439;-58
2024/03/13 07:21:16;;;;;;;34.60;17.33;;;9.60;99.90;;;;;;6105660;23;20427;-60
2024/03/13 07:23:43;;;;;;;40.57;18.53;;;9.60;99.90;;;;;;6106059;23;20435;-57
2024/03/13 07:26:11;;;;;;;29.40;15.23;;;9.70;99.90;;;;;;6105775;23;20411;-58
2024/03/13 07:28:38;;;;;;;31.07;15.43;;;9.70;99.90;;;;;;6104993;23;20411;-59
2024/03/13 07:31:07;;;;;;;32.03;18.37;;;9.70;99.90;;;;;;6103174;23;20916;-57
2024/03/13 07:33:34;;;;;;;39.40;16.47;;;9.80;99.90;;;;;;6104010;23;20427;-60
2024/03/13 07:36:01;;;;;;;33.17;17.93;;;9.90;99.90;;;;;;6104689;23;20905;-60
2024/03/13 07:38:28;;;;;;;36.67;19.37;;;9.90;99.90;;;;;;6103287;23;20447;-59
2024/03/13 07:40:55;;;;;;;30.53;16.87;;;10.00;99.90;;;;;;6104615;23;20501;-60
2024/03/13 07:43:22;;;;;;;36.33;17.53;;;10.00;99.90;;;;;;6105064;23;20940;-59
2024/03/13 07:45:49;;;;;;;44.13;19.93;;;10.10;99.90;;;;;;6105052;23;20399;-59
2024/03/13 07:48:16;;;;;;;33.50;20.40;;;10.20;99.90;;;;;;6104724;23;20415;-54
2024/03/13 07:50:43;;;;;;;32.30;16.70;;;10.20;99.90;;;;;;6106062;23;20403;-53
2024/03/13 07:53:10;;;;;;;34.43;18.00;;;10.30;99.90;;;;;;6104278;23;20431;-56
2024/03/13 07:55:37;;;;;;;38.77;19.17;;;10.40;99.90;;;;;;6104887;23;20403;-56
2024/03/13 07:58:04;;;;;;;35.17;16.87;;;10.50;99.90;;;;;;6106650;23;20905;-55
2024/03/13 08:00:35;;;;;;;36.77;17.60;;;10.60;99.90;;;;;;6107295;23;20399;-53
2024/03/13 08:03:02;;;;;;;35.73;17.80;;;10.70;99.90;;;;;;6108444;23;20431;-56
2024/03/13 08:05:29;;;;;;;30.23;16.27;;;10.80;99.90;;;;;;6107938;23;20410;-55
2024/03/13 08:07:57;;;;;;;44.73;18.70;;;10.90;99.90;;;;;;6107973;23;20464;-52
2024/03/13 08:10:25;;;;;;;31.07;17.70;;;10.90;99.90;;;;;;6107460;23;20399;-56
2024/03/13 08:12:53;;;;;;;28.67;16.00;;;11.00;99.90;;;;;;6106613;23;20519;-53
2024/03/13 08:15:20;;;;;;;32.30;16.77;;;11.10;99.90;;;;;;6106572;23;20427;-53
2024/03/13 08:17:47;;;;;;;38.70;17.90;;;11.20;99.90;;;;;;6106889;23;20449;-53
2024/03/13 08:20:14;;;;;;;30.90;16.60;;;11.20;99.90;;;;;;6107047;23;20442;-55
2024/03/13 08:22:43;;;;;;;33.77;17.30;;;11.30;99.90;;;;;;6108371;23;20427;-53
2024/03/13 08:25:16;;;;;;;31.07;16.53;;;11.50;99.90;;;;;;6108919;23;20458;-57
2024/03/13 08:27:43;;;;;;;38.17;17.90;;;11.50;99.90;;;;;;6110144;23;20729;-51
2024/03/13 08:30:20;;;;;;;28.40;16.63;;;11.70;99.90;;;;;;6106922;23;20405;-59
2024/03/13 08:32:48;;;;;;;33.87;16.67;;;11.80;99.90;;;;;;6107151;23;20464;-56
2024/03/13 08:35:27;;;;;;;32.97;18.30;;;11.90;99.90;;;;;;6107314;23;20427;-56
2024/03/13 08:37:59;;;;;;;36.60;16.97;;;11.90;99.90;;;;;;6106920;23;20397;-59
2024/03/13 08:40:28;;;;;;;32.33;15.73;;;11.90;99.90;;;;;;6106389;23;20439;-55
2024/03/13 08:42:55;;;;;;;30.70;18.03;;;12.10;99.90;;;;;;6106100;23;20423;-54
2024/03/13 08:45:22;;;;;;;25.87;14.77;;;12.70;99.90;;;;;;6106390;23;20485;-56
2024/03/13 08:47:49;;;;;;;25.97;15.23;;;13.70;99.90;;;;;;6106210;23;20403;-56
2024/03/13 08:50:16;;;;;;;31.90;16.00;;;14.90;99.90;;;;;;6105710;23;20418;-50
2024/03/13 08:52:43;;;;;;;24.67;16.23;;;16.30;99.90;;;;;;6107793;23;20746;-56
2024/03/13 08:55:10;;;;;;;28.90;14.63;;;17.50;99.90;;;;;;6107179;23;20439;-54
2024/03/13 08:57:37;;;;;;;23.67;13.50;;;19.10;99.90;;;;;;6107196;23;20430;-55
2024/03/13 09:00:05;;;;;;;22.67;14.87;;;20.20;99.90;;;;;;6107528;23;20829;-58
2024/03/13 09:02:33;;;;;;;25.20;16.53;;;20.80;96.90;;;;;;6106904;23;20427;-59
2024/03/13 09:05:00;;;;;;;23.77;13.90;;;21.10;93.90;;;;;;6108734;23;20406;-61
2024/03/13 09:07:27;;;;;;;25.13;14.23;;;21.40;91.80;;;;;;6110012;23;20458;-59
2024/03/13 09:09:55;;;;;;;23.13;14.60;;;21.90;90.40;;;;;;6108778;23;20423;-61
2024/03/13 09:12:22;;;;;;;19.00;13.10;;;22.30;85.70;;;;;;6125617;23;20481;-62
2024/03/13 09:14:49;;;;;;;18.50;13.43;;;22.60;83.30;;;;;;6153850;23;20387;-61
2024/03/13 09:17:16;;;;;;;23.67;14.50;;;22.80;79.40;;;;;;6154592;23;20510;-63
2024/03/13 09:19:43;;;;;;;19.57;13.83;;;22.70;77.00;;;;;;6154386;23;20438;-63
2024/03/13 09:22:11;;;;;;;18.80;13.10;;;22.50;76.70;;;;;;6153853;23;20719;-62
2024/03/13 09:24:39;;;;;;;21.70;12.87;;;22.80;75.70;;;;;;6153703;23;20410;-64
2024/03/13 09:27:06;;;;;;;23.10;13.57;;;22.80;74.30;;;;;;6154093;23;20904;-65
2024/03/13 09:29:33;;;;;;;21.97;12.73;;;22.90;73.20;;;;;;6153956;23;20465;-64
2024/03/13 09:32:00;;;;;;;23.03;13.30;;;22.70;72.90;;;;;;6153720;23;20476;-62
2024/03/13 09:34:29;;;;;;;22.43;13.00;;;21.90;72.80;;;;;;6154004;23;20481;-67
2024/03/13 09:36:59;;;;;;;22.17;12.43;;;20.80;75.10;;;;;;6154047;23;20904;-60
2024/03/13 09:39:26;;;;;;;26.30;14.17;;;19.70;78.40;;;;;;6154072;23;20442;-63
2024/03/13 09:41:54;;;;;;;19.10;11.40;;;19.00;80.70;;;;;;6153506;23;20433;-62
2024/03/13 09:44:21;;;;;;;18.33;11.10;;;18.40;83.90;;;;;;6153995;23;20410;-64
2024/03/13 09:46:48;;;;;;;21.10;12.33;;;17.80;87.00;;;;;;6153731;23;20403;-60
2024/03/13 09:49:15;;;;;;;17.70;10.13;;;17.30;89.10;;;;;;6154104;23;20449;-65
2024/03/13 09:51:43;;;;;;;22.30;11.73;;;17.50;90.50;;;;;;6153175;23;20475;-63
2024/03/13 09:54:11;;;;;;;22.27;13.43;;;18.20;90.00;;;;;;6153765;23;20402;-62
2024/03/13 09:56:38;;;;;;;18.20;10.70;;;18.80;87.90;;;;;;6154695;23;20407;-63
2024/03/13 09:59:05;;;;;;;21.40;11.90;;;19.40;86.50;;;;;;6154722;23;20449;-62
2024/03/13 10:01:34;;;;;;;24.00;12.27;;;20.10;84.10;;;;;;6153822;23;20405;-62
2024/03/13 10:04:03;;;;;;;20.20;12.03;;;21.10;81.30;;;;;;6154018;23;20399;-62
2024/03/13 10:06:30;;;;;;;21.60;13.60;;;22.10;78.90;;;;;;6153587;23;20410;-64
2024/03/13 10:08:57;;;;;;;24.10;13.53;;;22.90;74.20;;;;;;6154032;23;20456;-61
2024/03/13 10:11:24;;;;;;;21.80;13.77;;;22.90;72.40;;;;;;6153810;23;20403;-63
2024/03/13 10:13:51;;;;;;;21.57;12.70;;;22.80;71.10;;;;;;6153274;23;20493;-64
2024/03/13 10:16:18;;;;;;;22.30;14.17;;;22.60;70.90;;;;;;6153834;23;20456;-65
2024/03/13 10:18:47;;;;;;;24.63;14.10;;;22.40;71.00;;;;;;6153912;23;20788;-65
2024/03/13 10:21:14;;;;;;;21.80;13.83;;;22.60;70.30;;;;;;6153907;23;20434;-63
2024/03/13 10:23:42;;;;;;;20.20;12.50;;;21.90;71.60;;;;;;6152156;23;20485;-62
2024/03/13 10:26:09;;;;;;;18.60;11.90;;;21.40;72.90;;;;;;6153811;23;20488;-57
2024/03/13 10:28:38;;;;;;;18.93;11.80;;;21.00;73.10;;;;;;6153535;23;20406;-54
2024/03/13 10:31:05;;;;;;;19.17;11.93;;;21.00;72.80;;;;;;6153742;23;20470;-56
2024/03/13 10:33:32;;;;;;;17.47;11.77;;;21.10;73.90;;;;;;6152653;23;20508;-52
2024/03/13 10:36:00;;;;;;;23.97;13.13;;;21.00;73.60;;;;;;6153882;23;20889;-57
2024/03/13 10:38:27;;;;;;;26.03;13.67;;;20.40;74.50;;;;;;6153648;23;20477;-55
2024/03/13 10:40:52;;;;;;;21.67;13.30;;;19.70;76.70;;;;;;6153265;23;20465;-56
2024/03/13 10:43:19;;;;;;;26.93;15.60;;;19.50;77.50;;;;;;6152785;23;20541;-55
2024/03/13 10:45:48;;;;;;;23.40;13.83;;;19.00;79.00;;;;;;6153554;23;20402;-53
2024/03/13 10:48:16;;;;;;;24.93;14.10;;;18.50;79.50;;;;;;6153621;23;20402;-55
2024/03/13 10:50:44;;;;;;;22.40;12.87;;;18.00;81.70;;;;;;6153579;23;20445;-58
2024/03/13 10:53:11;;;;;;;24.80;13.20;;;17.70;82.60;;;;;;6152745;23;20440;-55
2024/03/13 10:55:38;;;;;;;20.87;11.73;;;17.30;84.60;;;;;;6153121;23;20485;-54
2024/03/13 10:58:05;;;;;;;25.07;11.90;;;17.00;86.70;;;;;;6153289;23;20397;-53
2024/03/13 11:00:33;;;;;;;21.43;12.93;;;17.00;89.00;;;;;;6152858;23;20445;-55
2024/03/13 11:02:59;;;;;;;23.17;13.53;;;17.60;87.90;;;;;;6152938;23;20423;-54
2024/03/13 11:05:26;;;;;;;21.70;12.50;;;17.70;84.90;;;;;;6152880;23;20413;-54
2024/03/13 11:07:55;;;;;;;21.83;12.27;;;17.60;85.30;;;;;;6128650;23;20428;-56
2024/03/13 11:10:22;;;;;;;22.63;13.13;;;17.60;84.90;;;;;;6153189;23;20405;-55
2024/03/13 11:12:50;;;;;;;22.10;12.70;;;17.40;85.30;;;;;;6152244;23;20430;-58
2024/03/13 11:15:16;;;;;;;20.77;13.63;;;17.20;86.70;;;;;;6153506;23;20402;-58
2024/03/13 11:17:44;;;;;;;21.27;13.03;;;17.10;87.90;;;;;;6153553;23;20752;-64
2024/03/13 11:20:14;;;;;;;19.20;12.27;;;16.90;88.40;;;;;;6153217;23;21015;-65
2024/03/13 11:22:41;;;;;;;22.70;12.97;;;16.70;89.50;;;;;;6152341;23;20417;-64
2024/03/13 11:25:12;;;;;;;21.57;12.33;;;16.40;90.50;;;;;;6152881;23;20773;-63
2024/03/13 11:27:39;;;;;;;21.57;13.47;;;16.20;91.30;;;;;;6152709;23;20430;-61
2024/03/13 11:30:07;;;;;;;21.77;12.23;;;16.10;91.70;;;;;;6152677;23;20399;-65
2024/03/13 11:32:34;;;;;;;17.93;12.10;;;16.10;92.10;;;;;;6151801;23;20415;-60
2024/03/13 11:35:05;;;;;;;23.00;12.60;;;16.10;92.60;;;;;;6152541;23;20631;-62
2024/03/13 11:37:32;;;;;;;19.30;11.40;;;15.90;92.50;;;;;;6153021;23;20379;-64
2024/03/13 11:39:59;;;;;;;21.63;11.57;;;15.90;92.80;;;;;;6152886;23;20449;-63
2024/03/13 11:42:30;;;;;;;23.63;12.83;;;15.80;93.20;;;;;;6152471;23;20418;-62
2024/03/13 11:45:16;;;;;;;19.93;12.10;;;15.70;93.50;;;;;;6153417;23;20387;-62
2024/03/13 11:47:45;;;;;;;21.07;10.37;;;15.70;93.80;;;;;;6152671;23;20409;-63
2024/03/13 11:50:15;;;;;;;20.30;11.23;;;15.70;94.30;;;;;;6152844;23;20724;-63
2024/03/13 11:53:06;;;;;;;19.10;11.53;;;15.70;94.30;;;;;;6152508;23;20449;-63
2024/03/13 11:55:33;;;;;;;14.07;9.37;;;15.70;94.20;;;;;;6123608;23;20913;-66
2024/03/13 11:58:06;;;;;;;17.63;11.57;;;15.70;93.90;;;;;;6152718;23;20402;-64
2024/03/13 12:00:33;;;;;;;14.37;9.90;;;15.80;93.60;;;;;;6152167;23;20442;-62
2024/03/13 12:03:01;;;;;;;20.30;11.20;;;15.90;93.60;;;;;;6152447;23;20749;-63
2024/03/13 12:05:32;;;;;;;18.43;9.47;;;16.00;92.70;;;;;;6152673;23;20457;-64
2024/03/13 12:08:00;;;;;;;16.30;9.80;;;16.00;92.30;;;;;;6152944;23;20405;-62
2024/03/13 12:10:29;;;;;;;15.37;10.07;;;15.90;92.50;;;;;;6152754;23;20402;-63
2024/03/13 12:12:55;;;;;;;13.50;9.80;;;15.90;93.00;;;;;;6151904;23;20444;-62
2024/03/13 12:15:24;;;;;;;16.73;9.97;;;16.00;92.10;;;;;;6152865;23;20767;-63
2024/03/13 12:17:51;;;;;;;14.40;10.40;;;16.00;92.00;;;;;;6152946;23;20409;-62
2024/03/13 12:20:21;;;;;;;16.83;10.00;;;16.10;92.20;;;;;;6152597;23;20462;-65
2024/03/13 12:22:49;;;;;;;13.47;9.10;;;16.10;90.50;;;;;;6152396;23;20793;-63
2024/03/13 12:25:16;;;;;;;13.87;9.90;;;16.00;90.60;;;;;;6152545;23;20410;-63
2024/03/13 12:27:47;;;;;;;15.83;10.17;;;16.10;91.10;;;;;;6153769;23;20766;-63
2024/03/13 12:30:15;;;;;;;16.57;10.30;;;16.10;91.20;;;;;;6152739;23;20488;-62
2024/03/13 12:32:42;;;;;;;15.33;9.63;;;16.10;91.40;;;;;;6152507;23;20426;-62
2024/03/13 12:35:10;;;;;;;13.87;9.87;;;16.00;91.10;;;;;;6153149;23;20948;-63
2024/03/13 12:37:38;;;;;;;9.53;8.37;;;16.10;90.80;;;;;;6152726;23;20429;-61
2024/03/13 12:40:08;;;;;;;13.13;8.83;;;16.20;90.80;;;;;;6153533;23;20767;-63
2024/03/13 12:42:37;;;;;;;14.10;10.27;;;16.30;90.20;;;;;;6153915;23;20418;-63
2024/03/13 12:45:05;;;;;;;19.47;11.43;;;16.30;90.10;;;;;;6154434;23;20412;-63
2024/03/13 12:47:32;;;;;;;17.00;10.73;;;16.30;90.00;;;;;;6155290;23;20398;-62
2024/03/13 12:49:59;;;;;;;15.73;9.63;;;16.20;90.20;;;;;;6154802;23;20401;-63
2024/03/13 12:52:29;;;;;;;15.43;10.40;;;16.20;90.50;;;;;;6154238;23;20477;-62
2024/03/13 12:54:57;;;;;;;14.37;9.33;;;16.20;90.60;;;;;;6155007;23;20402;-62